createdAt,value
2022-07-28T00:00:39.015Z,53.82
2022-07-28T00:05:36.599Z,54.17
2022-07-28T00:10:39.049Z,54.12
2022-07-28T00:15:46.048Z,54.56
2022-07-28T00:26:04.759Z,55.25
2022-07-28T00:31:05.016Z,54.97
2022-07-28T00:36:06.696Z,54.71
2022-07-28T00:41:18.396Z,54.74
2022-07-28T00:46:26.451Z,54.94
2022-07-28T00:51:27.487Z,54.92
2022-07-28T00:56:29.946Z,54.48
2022-07-28T01:01:31.764Z,54.69
2022-07-28T01:06:52.882Z,54.46
2022-07-28T01:12:04.185Z,54.34
2022-07-28T01:17:13.097Z,54.00
2022-07-28T01:22:19.707Z,54.25
2022-07-28T01:27:54.596Z,54.13
2022-07-28T01:33:21.021Z,54.01
2022-07-28T01:38:20.037Z,54.16
2022-07-28T01:43:23.915Z,54.52
2022-07-28T01:48:25.037Z,54.76
2022-07-28T01:53:26.042Z,54.83
2022-07-28T01:58:30.173Z,55.38
2022-07-28T02:03:31.946Z,55.62
2022-07-28T02:08:32.378Z,55.36
2022-07-28T02:13:33.249Z,55.11
2022-07-28T02:18:33.870Z,54.51
2022-07-28T02:23:32.871Z,54.42
2022-07-28T02:28:35.066Z,55.03
2022-07-28T02:33:58.793Z,54.89
2022-07-28T02:39:06.382Z,54.73
2022-07-28T02:44:16.744Z,55.31
2022-07-28T02:49:34.361Z,56.19
2022-07-28T02:54:39.766Z,55.72
2022-07-28T02:59:44.403Z,56.49
2022-07-28T03:04:58.391Z,56.81
2022-07-28T03:09:59.916Z,57.60
2022-07-28T03:15:00.873Z,57.98
2022-07-28T03:20:06.345Z,57.90
2022-07-28T03:25:11.286Z,57.92
2022-07-28T03:30:18.487Z,57.82
2022-07-28T03:35:19.156Z,58.04
2022-07-28T03:47:01.412Z,58.55
2022-07-28T03:52:56.642Z,58.54
2022-07-28T03:59:38.634Z,58.49
2022-07-28T04:05:29.740Z,58.46
2022-07-28T04:22:51.324Z,57.78
2022-07-28T04:28:23.385Z,57.47
2022-07-28T04:33:24.477Z,58.02
2022-07-28T04:38:37.400Z,57.96
2022-07-28T04:44:35.408Z,59.07
2022-07-28T04:50:16.557Z,59.29
2022-07-28T04:55:40.275Z,58.12
2022-07-28T05:01:35.810Z,56.88
2022-07-28T05:07:20.547Z,55.24
2022-07-28T05:12:30.298Z,55.50
2022-07-28T05:17:30.810Z,55.16
2022-07-28T05:22:46.255Z,54.76
2022-07-28T05:27:50.382Z,54.41
2022-07-28T05:33:00.964Z,52.20
2022-07-28T05:38:11.355Z,51.89
2022-07-28T05:43:21.310Z,52.10
2022-07-28T05:48:32.088Z,52.80
2022-07-28T05:54:03.455Z,51.18
2022-07-28T06:04:56.513Z,47.19
2022-07-28T06:10:08.243Z,48.09
2022-07-28T06:16:17.721Z,48.61
2022-07-28T06:22:42.991Z,49.88
2022-07-28T06:28:50.055Z,49.24
2022-07-28T06:55:11.357Z,40.08
2022-07-28T07:06:37.035Z,38.77
2022-07-28T07:19:26.962Z,35.98
2022-07-28T07:32:20.657Z,33.23
2022-07-28T07:58:53.702Z,32.71
2022-07-28T11:23:58.934Z,33.13
2022-07-28T11:29:22.527Z,33.28
2022-07-28T11:34:26.341Z,32.68
2022-07-28T11:39:51.077Z,32.36
2022-07-28T11:44:49.479Z,31.75
2022-07-28T11:50:53.763Z,31.32
2022-07-28T11:56:13.119Z,30.64
2022-07-28T12:01:38.237Z,30.83
2022-07-28T12:06:40.212Z,30.98
2022-07-28T12:11:54.782Z,31.37
2022-07-28T12:16:54.833Z,30.39
2022-07-28T12:21:55.315Z,30.67
2022-07-28T12:26:59.100Z,31.04
2022-07-28T12:32:04.422Z,30.41
2022-07-28T12:37:05.606Z,30.09
2022-07-28T12:42:08.202Z,29.89
2022-07-28T12:47:08.460Z,29.68
2022-07-28T12:52:22.967Z,28.82
2022-07-28T12:57:50.350Z,28.97
2022-07-28T13:03:05.150Z,29.01
2022-07-28T13:08:18.914Z,29.69
2022-07-28T13:13:27.207Z,30.20
2022-07-28T13:18:52.480Z,30.89
2022-07-28T13:24:09.722Z,30.47
2022-07-28T13:29:59.643Z,30.74
2022-07-28T13:35:34.152Z,31.16
2022-07-28T13:41:15.853Z,31.37
2022-07-28T13:46:17.994Z,32.26
2022-07-28T13:51:27.555Z,32.72
2022-07-28T13:56:26.231Z,32.64
2022-07-28T14:01:24.584Z,32.59
2022-07-28T14:06:28.130Z,32.54
2022-07-28T14:11:27.231Z,32.82
2022-07-28T14:16:25.251Z,39.21
2022-07-28T14:21:22.337Z,45.98
2022-07-28T14:26:35.544Z,47.02
2022-07-28T14:31:38.407Z,53.48
2022-07-28T14:36:35.633Z,59.67
2022-07-28T14:41:33.437Z,61.06
2022-07-28T14:46:32.879Z,63.53
2022-07-28T14:51:34.260Z,64.12
2022-07-28T14:56:44.422Z,63.97
2022-07-28T15:01:41.687Z,64.54
2022-07-28T15:06:42.673Z,64.32
2022-07-28T15:11:49.382Z,62.79
2022-07-28T15:17:13.168Z,62.51
2022-07-28T15:22:19.495Z,61.16
2022-07-28T15:27:33.042Z,60.00
2022-07-28T15:32:31.794Z,58.91
2022-07-28T15:37:30.452Z,59.14
2022-07-28T15:42:28.162Z,59.36
2022-07-28T15:47:25.641Z,59.55
2022-07-28T15:52:40.496Z,58.58
2022-07-28T16:02:58.659Z,61.19
2022-07-28T16:07:57.454Z,59.49
2022-07-28T16:12:57.141Z,55.38
2022-07-28T16:17:54.846Z,56.99
2022-07-28T16:22:52.610Z,59.03
2022-07-28T16:28:03.022Z,58.15
2022-07-28T16:33:00.585Z,56.79
2022-07-28T16:37:59.900Z,57.45
2022-07-28T16:43:15.988Z,55.82
2022-07-28T16:48:25.892Z,57.32
2022-07-28T16:53:28.432Z,57.13
2022-07-28T16:58:37.100Z,56.99
2022-07-28T17:03:34.572Z,58.13
2022-07-28T17:09:27.598Z,56.36
2022-07-28T17:14:37.212Z,54.68
2022-07-28T17:20:06.882Z,53.69
2022-07-28T17:31:02.439Z,54.76
2022-07-28T17:36:45.169Z,55.14
2022-07-28T17:41:55.930Z,56.24
2022-07-28T17:47:04.159Z,56.71
2022-07-28T17:52:32.348Z,55.81
2022-07-28T17:58:08.946Z,54.65
2022-07-28T18:03:18.642Z,52.52
2022-07-28T18:09:08.177Z,49.68
2022-07-28T18:15:03.185Z,50.33
2022-07-28T18:20:38.105Z,51.53
2022-07-28T18:25:55.169Z,53.79
2022-07-28T18:30:52.658Z,54.71
2022-07-28T18:35:51.959Z,55.82
2022-07-28T18:40:52.761Z,56.81
2022-07-28T18:45:51.789Z,56.89
2022-07-28T18:50:50.384Z,57.88
2022-07-28T18:55:48.842Z,58.99
2022-07-28T19:00:47.521Z,58.54
2022-07-28T19:06:08.153Z,57.85
2022-07-28T19:11:05.647Z,56.58
2022-07-28T19:16:04.567Z,55.69
2022-07-28T19:21:10.524Z,55.00
2022-07-28T19:26:08.670Z,56.04
2022-07-28T19:31:10.115Z,56.59
2022-07-28T19:36:24.339Z,56.66
2022-07-28T19:41:30.824Z,56.00
2022-07-28T19:47:38.157Z,56.23
2022-07-28T19:52:37.455Z,55.82
2022-07-28T19:58:49.507Z,53.48
2022-07-28T20:04:03.748Z,52.43
2022-07-28T20:09:08.077Z,54.31
2022-07-28T20:19:51.085Z,54.19
2022-07-28T20:24:48.817Z,56.18
2022-07-28T20:29:48.341Z,56.56
2022-07-28T20:34:53.030Z,56.85
2022-07-28T20:39:54.767Z,57.26
2022-07-28T20:44:54.314Z,57.38
2022-07-28T20:49:55.162Z,56.85
2022-07-28T20:54:54.867Z,57.82
2022-07-28T20:59:53.077Z,58.86
2022-07-28T21:04:50.736Z,58.76
2022-07-28T21:09:48.173Z,58.36
2022-07-28T21:15:53.537Z,57.24
2022-07-28T21:21:13.366Z,56.23
2022-07-28T21:26:55.764Z,56.34
2022-07-28T21:33:07.183Z,55.14
2022-07-28T21:38:26.170Z,54.55
2022-07-28T21:43:24.533Z,55.05
2022-07-28T21:48:24.373Z,54.91
2022-07-28T21:53:21.795Z,55.68
2022-07-28T21:58:19.071Z,56.25
2022-07-28T22:03:16.640Z,57.55
2022-07-28T22:08:14.986Z,56.77
2022-07-28T22:13:12.306Z,57.10
2022-07-28T22:18:13.409Z,57.48
2022-07-28T22:23:28.676Z,58.13
2022-07-28T22:28:29.938Z,58.59
2022-07-28T22:33:27.839Z,58.50
2022-07-28T22:38:26.364Z,58.48
2022-07-28T22:43:24.634Z,58.67
2022-07-28T22:48:21.591Z,57.23
2022-07-28T22:53:19.637Z,57.46
2022-07-28T22:58:18.400Z,57.87
2022-07-28T23:03:15.961Z,57.11
2022-07-28T23:08:13.545Z,56.56
2022-07-28T23:13:10.785Z,58.18
2022-07-28T23:18:09.526Z,60.50
2022-07-28T23:23:08.185Z,61.72
2022-07-28T23:28:05.694Z,62.52
2022-07-28T23:33:04.011Z,62.73
2022-07-28T23:38:02.160Z,62.24
2022-07-28T23:42:59.377Z,62.06
2022-07-28T23:47:58.945Z,62.18
2022-07-28T23:52:56.367Z,61.72
2022-07-28T23:57:58.037Z,61.14
